sensor_id;sensor_type;location;lat;lon;timestamp;P1;durP1;ratioP1;P2;durP2;ratioP2
78589;SDS011;67888;50.228;7.828;2023-04-24T00:01:52;5.10;;;1.67;;
78589;SDS011;67888;50.228;7.828;2023-04-24T00:06:53;4.83;;;1.60;;
78589;SDS011;67888;50.228;7.828;2023-04-24T00:11:57;5.18;;;1.88;;
78589;SDS011;67888;50.228;7.828;2023-04-24T00:16:57;5.37;;;2.03;;
78589;SDS011;67888;50.228;7.828;2023-04-24T00:21:57;4.77;;;2.30;;
78589;SDS011;67888;50.228;7.828;2023-04-24T00:26:58;5.30;;;2.10;;
78589;SDS011;67888;50.228;7.828;2023-04-24T00:31:59;5.70;;;2.10;;
78589;SDS011;67888;50.228;7.828;2023-04-24T00:36:59;5.07;;;2.50;;
78589;SDS011;67888;50.228;7.828;2023-04-24T00:42:00;7.03;;;2.70;;
78589;SDS011;67888;50.228;7.828;2023-04-24T00:47:01;5.78;;;2.50;;
78589;SDS011;67888;50.228;7.828;2023-04-24T00:52:02;6.07;;;2.70;;
78589;SDS011;67888;50.228;7.828;2023-04-24T00:57:07;5.30;;;2.20;;
78589;SDS011;67888;50.228;7.828;2023-04-24T01:02:08;4.93;;;1.63;;
78589;SDS011;67888;50.228;7.828;2023-04-24T01:07:09;4.80;;;1.30;;
78589;SDS011;67888;50.228;7.828;2023-04-24T01:12:11;4.03;;;1.45;;
78589;SDS011;67888;50.228;7.828;2023-04-24T01:17:12;4.97;;;1.27;;
78589;SDS011;67888;50.228;7.828;2023-04-24T01:22:13;2.80;;;0.90;;
78589;SDS011;67888;50.228;7.828;2023-04-24T01:27:14;3.30;;;1.20;;
78589;SDS011;67888;50.228;7.828;2023-04-24T01:32:14;1.90;;;0.93;;
78589;SDS011;67888;50.228;7.828;2023-04-24T01:37:15;2.17;;;0.90;;
78589;SDS011;67888;50.228;7.828;2023-04-24T01:42:15;2.30;;;0.97;;
78589;SDS011;67888;50.228;7.828;2023-04-24T01:47:16;2.47;;;1.20;;
78589;SDS011;67888;50.228;7.828;2023-04-24T01:52:16;2.43;;;1.10;;
78589;SDS011;67888;50.228;7.828;2023-04-24T01:57:18;2.63;;;1.30;;
78589;SDS011;67888;50.228;7.828;2023-04-24T02:02:18;3.53;;;1.10;;
78589;SDS011;67888;50.228;7.828;2023-04-24T02:07:22;2.72;;;1.17;;
78589;SDS011;67888;50.228;7.828;2023-04-24T02:12:23;2.93;;;1.47;;
78589;SDS011;67888;50.228;7.828;2023-04-24T02:17:23;3.10;;;1.50;;
78589;SDS011;67888;50.228;7.828;2023-04-24T02:22:23;3.40;;;1.20;;
78589;SDS011;67888;50.228;7.828;2023-04-24T02:27:24;2.80;;;1.40;;
78589;SDS011;67888;50.228;7.828;2023-04-24T02:32:24;2.63;;;1.20;;
78589;SDS011;67888;50.228;7.828;2023-04-24T02:37:25;3.50;;;1.40;;
78589;SDS011;67888;50.228;7.828;2023-04-24T02:42:25;3.63;;;1.70;;
78589;SDS011;67888;50.228;7.828;2023-04-24T02:47:25;3.43;;;1.60;;
78589;SDS011;67888;50.228;7.828;2023-04-24T02:52:26;6.20;;;1.83;;
78589;SDS011;67888;50.228;7.828;2023-04-24T02:57:26;4.30;;;1.40;;
78589;SDS011;67888;50.228;7.828;2023-04-24T03:02:26;4.65;;;1.60;;
78589;SDS011;67888;50.228;7.828;2023-04-24T03:07:27;4.67;;;1.87;;
78589;SDS011;67888;50.228;7.828;2023-04-24T03:12:27;3.87;;;1.60;;
78589;SDS011;67888;50.228;7.828;2023-04-24T03:17:27;7.10;;;1.90;;
78589;SDS011;67888;50.228;7.828;2023-04-24T03:22:28;4.37;;;1.77;;
78589;SDS011;67888;50.228;7.828;2023-04-24T03:27:28;6.07;;;2.00;;
78589;SDS011;67888;50.228;7.828;2023-04-24T03:32:29;3.90;;;1.80;;
78589;SDS011;67888;50.228;7.828;2023-04-24T03:37:29;5.63;;;2.23;;
78589;SDS011;67888;50.228;7.828;2023-04-24T03:42:30;4.67;;;2.00;;
78589;SDS011;67888;50.228;7.828;2023-04-24T03:47:30;5.50;;;1.93;;
78589;SDS011;67888;50.228;7.828;2023-04-24T03:52:30;5.30;;;2.10;;
78589;SDS011;67888;50.228;7.828;2023-04-24T03:57:31;4.80;;;2.17;;
78589;SDS011;67888;50.228;7.828;2023-04-24T04:02:31;4.63;;;2.10;;
78589;SDS011;67888;50.228;7.828;2023-04-24T04:07:31;5.90;;;1.93;;
78589;SDS011;67888;50.228;7.828;2023-04-24T04:12:32;6.40;;;2.20;;
78589;SDS011;67888;50.228;7.828;2023-04-24T04:17:32;6.40;;;2.17;;
78589;SDS011;67888;50.228;7.828;2023-04-24T04:22:32;6.23;;;2.37;;
78589;SDS011;67888;50.228;7.828;2023-04-24T04:27:33;5.63;;;2.20;;
78589;SDS011;67888;50.228;7.828;2023-04-24T04:32:34;5.70;;;2.57;;
78589;SDS011;67888;50.228;7.828;2023-04-24T04:37:34;7.57;;;2.73;;
78589;SDS011;67888;50.228;7.828;2023-04-24T04:42:35;8.23;;;2.70;;
78589;SDS011;67888;50.228;7.828;2023-04-24T04:47:35;6.00;;;2.53;;
78589;SDS011;67888;50.228;7.828;2023-04-24T04:52:36;7.87;;;3.27;;
78589;SDS011;67888;50.228;7.828;2023-04-24T04:57:36;5.47;;;2.37;;
78589;SDS011;67888;50.228;7.828;2023-04-24T05:02:36;6.43;;;2.80;;
78589;SDS011;67888;50.228;7.828;2023-04-24T05:07:37;7.30;;;2.50;;
78589;SDS011;67888;50.228;7.828;2023-04-24T05:12:37;6.27;;;2.90;;
78589;SDS011;67888;50.228;7.828;2023-04-24T05:17:38;7.87;;;3.23;;
78589;SDS011;67888;50.228;7.828;2023-04-24T05:22:39;7.30;;;2.97;;
78589;SDS011;67888;50.228;7.828;2023-04-24T05:27:40;7.93;;;3.33;;
78589;SDS011;67888;50.228;7.828;2023-04-24T05:32:40;9.20;;;3.50;;
78589;SDS011;67888;50.228;7.828;2023-04-24T05:37:41;7.60;;;3.70;;
78589;SDS011;67888;50.228;7.828;2023-04-24T05:42:41;8.80;;;3.73;;
78589;SDS011;67888;50.228;7.828;2023-04-24T05:47:42;8.37;;;4.10;;
78589;SDS011;67888;50.228;7.828;2023-04-24T05:52:43;8.65;;;4.53;;
78589;SDS011;67888;50.228;7.828;2023-04-24T05:57:44;8.47;;;4.30;;
78589;SDS011;67888;50.228;7.828;2023-04-24T06:02:44;9.83;;;4.53;;
78589;SDS011;67888;50.228;7.828;2023-04-24T06:07:45;10.07;;;4.32;;
78589;SDS011;67888;50.228;7.828;2023-04-24T06:12:45;8.20;;;4.10;;
78589;SDS011;67888;50.228;7.828;2023-04-24T06:17:46;7.87;;;4.20;;
78589;SDS011;67888;50.228;7.828;2023-04-24T06:22:46;8.07;;;4.70;;
78589;SDS011;67888;50.228;7.828;2023-04-24T06:27:46;8.80;;;4.50;;
78589;SDS011;67888;50.228;7.828;2023-04-24T06:32:47;10.10;;;4.57;;
78589;SDS011;67888;50.228;7.828;2023-04-24T06:37:47;9.73;;;5.00;;
78589;SDS011;67888;50.228;7.828;2023-04-24T06:42:47;10.47;;;5.23;;
78589;SDS011;67888;50.228;7.828;2023-04-24T06:47:48;9.87;;;4.87;;
78589;SDS011;67888;50.228;7.828;2023-04-24T06:52:48;9.27;;;4.83;;
78589;SDS011;67888;50.228;7.828;2023-04-24T06:57:48;9.60;;;5.40;;
78589;SDS011;67888;50.228;7.828;2023-04-24T07:02:49;10.80;;;5.33;;
78589;SDS011;67888;50.228;7.828;2023-04-24T07:07:50;9.47;;;5.17;;
78589;SDS011;67888;50.228;7.828;2023-04-24T07:12:51;8.82;;;4.70;;
78589;SDS011;67888;50.228;7.828;2023-04-24T07:17:51;8.07;;;4.13;;
78589;SDS011;67888;50.228;7.828;2023-04-24T07:22:52;8.03;;;4.23;;
78589;SDS011;67888;50.228;7.828;2023-04-24T07:27:53;10.13;;;4.70;;
78589;SDS011;67888;50.228;7.828;2023-04-24T07:32:54;8.13;;;3.87;;
78589;SDS011;67888;50.228;7.828;2023-04-24T07:37:55;8.57;;;3.93;;
78589;SDS011;67888;50.228;7.828;2023-04-24T07:42:55;8.15;;;4.00;;
78589;SDS011;67888;50.228;7.828;2023-04-24T07:47:55;8.40;;;3.80;;
78589;SDS011;67888;50.228;7.828;2023-04-24T07:52:56;7.03;;;3.30;;
78589;SDS011;67888;50.228;7.828;2023-04-24T07:57:56;7.27;;;3.20;;
78589;SDS011;67888;50.228;7.828;2023-04-24T08:02:57;8.53;;;3.33;;
78589;SDS011;67888;50.228;7.828;2023-04-24T08:07:57;5.77;;;2.67;;
78589;SDS011;67888;50.228;7.828;2023-04-24T08:12:58;6.87;;;3.20;;
78589;SDS011;67888;50.228;7.828;2023-04-24T08:17:58;7.77;;;3.13;;
78589;SDS011;67888;50.228;7.828;2023-04-24T08:22:59;7.57;;;2.50;;
78589;SDS011;67888;50.228;7.828;2023-04-24T08:27:59;5.00;;;2.33;;
78589;SDS011;67888;50.228;7.828;2023-04-24T08:32:59;4.77;;;2.30;;
78589;SDS011;67888;50.228;7.828;2023-04-24T08:38:00;5.37;;;1.97;;
78589;SDS011;67888;50.228;7.828;2023-04-24T08:43:00;4.40;;;1.90;;
78589;SDS011;67888;50.228;7.828;2023-04-24T08:48:01;5.90;;;2.30;;
78589;SDS011;67888;50.228;7.828;2023-04-24T08:53:02;4.10;;;2.00;;
78589;SDS011;67888;50.228;7.828;2023-04-24T08:58:03;5.47;;;1.80;;
78589;SDS011;67888;50.228;7.828;2023-04-24T09:03:05;6.37;;;2.47;;
78589;SDS011;67888;50.228;7.828;2023-04-24T09:08:05;6.38;;;2.65;;
78589;SDS011;67888;50.228;7.828;2023-04-24T09:13:06;5.90;;;2.37;;
78589;SDS011;67888;50.228;7.828;2023-04-24T09:18:09;6.50;;;2.70;;
78589;SDS011;67888;50.228;7.828;2023-04-24T09:23:09;5.47;;;2.10;;
78589;SDS011;67888;50.228;7.828;2023-04-24T09:28:16;6.72;;;2.50;;
78589;SDS011;67888;50.228;7.828;2023-04-24T09:33:16;4.27;;;1.90;;
78589;SDS011;67888;50.228;7.828;2023-04-24T09:38:17;4.43;;;2.17;;
78589;SDS011;67888;50.228;7.828;2023-04-24T09:43:18;3.45;;;1.90;;
78589;SDS011;67888;50.228;7.828;2023-04-24T09:48:19;4.80;;;2.10;;
78589;SDS011;67888;50.228;7.828;2023-04-24T09:53:23;5.23;;;1.90;;
78589;SDS011;67888;50.228;7.828;2023-04-24T09:58:27;4.50;;;1.80;;
78589;SDS011;67888;50.228;7.828;2023-04-24T10:03:31;4.33;;;2.30;;
78589;SDS011;67888;50.228;7.828;2023-04-24T10:08:36;4.63;;;2.10;;
78589;SDS011;67888;50.228;7.828;2023-04-24T10:13:36;5.00;;;2.33;;
78589;SDS011;67888;50.228;7.828;2023-04-24T10:18:37;6.67;;;2.67;;
78589;SDS011;67888;50.228;7.828;2023-04-24T10:23:39;5.28;;;2.35;;
78589;SDS011;67888;50.228;7.828;2023-04-24T10:28:40;5.82;;;2.30;;
78589;SDS011;67888;50.228;7.828;2023-04-24T10:33:42;7.13;;;2.43;;
78589;SDS011;67888;50.228;7.828;2023-04-24T10:38:43;5.90;;;2.30;;
78589;SDS011;67888;50.228;7.828;2023-04-24T10:43:43;6.87;;;2.60;;
78589;SDS011;67888;50.228;7.828;2023-04-24T10:48:44;5.90;;;2.20;;
78589;SDS011;67888;50.228;7.828;2023-04-24T10:53:51;6.70;;;2.33;;
78589;SDS011;67888;50.228;7.828;2023-04-24T10:58:53;4.83;;;2.57;;
78589;SDS011;67888;50.228;7.828;2023-04-24T11:03:54;6.77;;;2.70;;
78589;SDS011;67888;50.228;7.828;2023-04-24T11:08:59;6.47;;;2.72;;
78589;SDS011;67888;50.228;7.828;2023-04-24T11:14:02;6.40;;;2.78;;
78589;SDS011;67888;50.228;7.828;2023-04-24T11:19:07;6.47;;;2.83;;
78589;SDS011;67888;50.228;7.828;2023-04-24T11:34:39;9.47;;;3.17;;
78589;SDS011;67888;50.228;7.828;2023-04-24T11:39:40;7.87;;;3.90;;
78589;SDS011;67888;50.228;7.828;2023-04-24T11:44:41;7.93;;;3.60;;
78589;SDS011;67888;50.228;7.828;2023-04-24T11:49:41;10.60;;;3.60;;
78589;SDS011;67888;50.228;7.828;2023-04-24T11:54:48;8.33;;;4.00;;
78589;SDS011;67888;50.228;7.828;2023-04-24T11:59:50;9.37;;;4.37;;
78589;SDS011;67888;50.228;7.828;2023-04-24T12:04:50;8.37;;;4.60;;
78589;SDS011;67888;50.228;7.828;2023-04-24T12:09:57;8.93;;;4.38;;
78589;SDS011;67888;50.228;7.828;2023-04-24T12:14:59;8.23;;;4.37;;
78589;SDS011;67888;50.228;7.828;2023-04-24T12:20:00;9.55;;;4.53;;
78589;SDS011;67888;50.228;7.828;2023-04-24T12:25:02;10.37;;;5.30;;
78589;SDS011;67888;50.228;7.828;2023-04-24T12:30:04;9.95;;;4.20;;
78589;SDS011;67888;50.228;7.828;2023-04-24T12:35:05;9.35;;;4.60;;
78589;SDS011;67888;50.228;7.828;2023-04-24T12:40:07;7.73;;;3.97;;
78589;SDS011;67888;50.228;7.828;2023-04-24T12:45:08;9.63;;;4.38;;
78589;SDS011;67888;50.228;7.828;2023-04-24T12:50:09;9.50;;;4.80;;
78589;SDS011;67888;50.228;7.828;2023-04-24T12:55:10;10.27;;;5.47;;
78589;SDS011;67888;50.228;7.828;2023-04-24T13:00:15;9.73;;;4.28;;
78589;SDS011;67888;50.228;7.828;2023-04-24T13:05:15;12.50;;;5.40;;
78589;SDS011;67888;50.228;7.828;2023-04-24T13:10:16;9.70;;;4.68;;
78589;SDS011;67888;50.228;7.828;2023-04-24T13:15:16;10.60;;;5.23;;
78589;SDS011;67888;50.228;7.828;2023-04-24T13:20:17;10.20;;;4.50;;
78589;SDS011;67888;50.228;7.828;2023-04-24T13:25:17;8.53;;;4.27;;
78589;SDS011;67888;50.228;7.828;2023-04-24T13:30:18;10.13;;;4.10;;
78589;SDS011;67888;50.228;7.828;2023-04-24T13:35:18;9.47;;;3.70;;
78589;SDS011;67888;50.228;7.828;2023-04-24T13:40:18;9.27;;;3.70;;
78589;SDS011;67888;50.228;7.828;2023-04-24T13:45:19;8.77;;;4.13;;
78589;SDS011;67888;50.228;7.828;2023-04-24T13:50:20;8.70;;;3.80;;
78589;SDS011;67888;50.228;7.828;2023-04-24T13:55:21;8.53;;;3.67;;
78589;SDS011;67888;50.228;7.828;2023-04-24T14:00:21;9.27;;;3.60;;
78589;SDS011;67888;50.228;7.828;2023-04-24T14:05:21;8.40;;;3.73;;
78589;SDS011;67888;50.228;7.828;2023-04-24T14:10:22;9.00;;;3.23;;
78589;SDS011;67888;50.228;7.828;2023-04-24T14:15:22;9.60;;;3.92;;
78589;SDS011;67888;50.228;7.828;2023-04-24T14:20:23;8.37;;;3.57;;
78589;SDS011;67888;50.228;7.828;2023-04-24T14:25:23;8.60;;;3.73;;
78589;SDS011;67888;50.228;7.828;2023-04-24T14:30:23;8.67;;;3.70;;
78589;SDS011;67888;50.228;7.828;2023-04-24T14:35:24;7.97;;;4.17;;
78589;SDS011;67888;50.228;7.828;2023-04-24T14:40:24;8.43;;;3.43;;
78589;SDS011;67888;50.228;7.828;2023-04-24T14:45:25;8.50;;;3.80;;
78589;SDS011;67888;50.228;7.828;2023-04-24T14:50:26;7.25;;;3.80;;
78589;SDS011;67888;50.228;7.828;2023-04-24T14:55:29;11.27;;;3.83;;
78589;SDS011;67888;50.228;7.828;2023-04-24T15:00:29;9.73;;;4.40;;
78589;SDS011;67888;50.228;7.828;2023-04-24T15:05:30;8.60;;;6.90;;
78589;SDS011;67888;50.228;7.828;2023-04-24T15:10:31;8.13;;;6.33;;
78589;SDS011;67888;50.228;7.828;2023-04-24T15:15:31;8.90;;;8.00;;
78589;SDS011;67888;50.228;7.828;2023-04-24T15:20:31;7.63;;;4.10;;
78589;SDS011;67888;50.228;7.828;2023-04-24T15:25:32;7.50;;;3.90;;
78589;SDS011;67888;50.228;7.828;2023-04-24T15:30:33;7.73;;;3.63;;
78589;SDS011;67888;50.228;7.828;2023-04-24T15:35:34;8.20;;;3.90;;
78589;SDS011;67888;50.228;7.828;2023-04-24T15:40:34;9.10;;;3.70;;
78589;SDS011;67888;50.228;7.828;2023-04-24T15:45:35;8.87;;;3.43;;
78589;SDS011;67888;50.228;7.828;2023-04-24T15:50:35;8.30;;;3.70;;
78589;SDS011;67888;50.228;7.828;2023-04-24T15:55:36;8.57;;;4.10;;
78589;SDS011;67888;50.228;7.828;2023-04-24T16:00:36;8.70;;;4.00;;
78589;SDS011;67888;50.228;7.828;2023-04-24T16:05:37;8.35;;;5.22;;
78589;SDS011;67888;50.228;7.828;2023-04-24T16:10:37;9.47;;;6.83;;
78589;SDS011;67888;50.228;7.828;2023-04-24T16:15:38;10.03;;;7.33;;
78589;SDS011;67888;50.228;7.828;2023-04-24T16:20:39;8.43;;;7.50;;
78589;SDS011;67888;50.228;7.828;2023-04-24T16:25:39;12.10;;;11.00;;
78589;SDS011;67888;50.228;7.828;2023-04-24T16:30:40;17.33;;;16.03;;
78589;SDS011;67888;50.228;7.828;2023-04-24T16:35:40;17.60;;;16.20;;
78589;SDS011;67888;50.228;7.828;2023-04-24T16:40:42;22.80;;;21.30;;
78589;SDS011;67888;50.228;7.828;2023-04-24T16:45:42;18.50;;;17.20;;
78589;SDS011;67888;50.228;7.828;2023-04-24T16:50:42;9.23;;;4.13;;
78589;SDS011;67888;50.228;7.828;2023-04-24T16:55:43;8.10;;;4.13;;
78589;SDS011;67888;50.228;7.828;2023-04-24T17:00:43;7.20;;;4.00;;
78589;SDS011;67888;50.228;7.828;2023-04-24T17:05:44;8.05;;;3.80;;
78589;SDS011;67888;50.228;7.828;2023-04-24T17:10:45;8.27;;;4.20;;
78589;SDS011;67888;50.228;7.828;2023-04-24T17:15:45;9.57;;;4.27;;
78589;SDS011;67888;50.228;7.828;2023-04-24T17:20:46;8.77;;;4.03;;
78589;SDS011;67888;50.228;7.828;2023-04-24T17:25:47;8.87;;;3.97;;
78589;SDS011;67888;50.228;7.828;2023-04-24T17:30:47;8.87;;;3.70;;
78589;SDS011;67888;50.228;7.828;2023-04-24T17:35:48;10.03;;;4.07;;
78589;SDS011;67888;50.228;7.828;2023-04-24T17:40:49;9.23;;;4.07;;
78589;SDS011;67888;50.228;7.828;2023-04-24T17:45:52;8.20;;;3.90;;
78589;SDS011;67888;50.228;7.828;2023-04-24T17:50:56;9.13;;;4.07;;
78589;SDS011;67888;50.228;7.828;2023-04-24T17:55:57;9.05;;;4.10;;
78589;SDS011;67888;50.228;7.828;2023-04-24T18:01:01;10.43;;;3.60;;
78589;SDS011;67888;50.228;7.828;2023-04-24T18:06:02;8.50;;;3.40;;
78589;SDS011;67888;50.228;7.828;2023-04-24T18:11:03;8.20;;;3.88;;
78589;SDS011;67888;50.228;7.828;2023-04-24T18:16:03;10.40;;;4.03;;
78589;SDS011;67888;50.228;7.828;2023-04-24T18:21:04;7.43;;;3.47;;
78589;SDS011;67888;50.228;7.828;2023-04-24T18:26:05;7.57;;;3.40;;
78589;SDS011;67888;50.228;7.828;2023-04-24T18:31:05;7.97;;;3.20;;
78589;SDS011;67888;50.228;7.828;2023-04-24T18:36:07;8.45;;;4.15;;
78589;SDS011;67888;50.228;7.828;2023-04-24T18:41:08;8.63;;;3.90;;
78589;SDS011;67888;50.228;7.828;2023-04-24T18:46:08;10.17;;;4.10;;
78589;SDS011;67888;50.228;7.828;2023-04-24T18:51:09;8.00;;;3.53;;
78589;SDS011;67888;50.228;7.828;2023-04-24T18:56:09;8.23;;;3.97;;
78589;SDS011;67888;50.228;7.828;2023-04-24T19:01:10;8.47;;;3.63;;
78589;SDS011;67888;50.228;7.828;2023-04-24T19:06:10;7.27;;;3.30;;
78589;SDS011;67888;50.228;7.828;2023-04-24T19:11:11;9.20;;;4.30;;
78589;SDS011;67888;50.228;7.828;2023-04-24T19:16:11;10.02;;;5.22;;
78589;SDS011;67888;50.228;7.828;2023-04-24T19:21:12;15.23;;;9.77;;
78589;SDS011;67888;50.228;7.828;2023-04-24T19:26:13;13.10;;;6.97;;
78589;SDS011;67888;50.228;7.828;2023-04-24T19:31:14;11.47;;;5.87;;
78589;SDS011;67888;50.228;7.828;2023-04-24T19:36:15;11.60;;;6.60;;
78589;SDS011;67888;50.228;7.828;2023-04-24T19:41:16;14.05;;;7.57;;
78589;SDS011;67888;50.228;7.828;2023-04-24T19:46:17;12.67;;;6.90;;
78589;SDS011;67888;50.228;7.828;2023-04-24T19:51:19;10.87;;;5.37;;
78589;SDS011;67888;50.228;7.828;2023-04-24T19:56:19;9.18;;;4.25;;
78589;SDS011;67888;50.228;7.828;2023-04-24T20:01:20;8.13;;;4.23;;
78589;SDS011;67888;50.228;7.828;2023-04-24T20:06:20;9.23;;;4.17;;
78589;SDS011;67888;50.228;7.828;2023-04-24T20:11:21;8.63;;;4.67;;
78589;SDS011;67888;50.228;7.828;2023-04-24T20:16:21;12.10;;;5.47;;
78589;SDS011;67888;50.228;7.828;2023-04-24T20:21:21;9.83;;;4.50;;
78589;SDS011;67888;50.228;7.828;2023-04-24T20:26:22;8.20;;;4.03;;
78589;SDS011;67888;50.228;7.828;2023-04-24T20:31:22;8.40;;;4.00;;
78589;SDS011;67888;50.228;7.828;2023-04-24T20:36:23;8.97;;;4.40;;
78589;SDS011;67888;50.228;7.828;2023-04-24T20:41:24;8.73;;;4.45;;
78589;SDS011;67888;50.228;7.828;2023-04-24T20:46:25;10.00;;;4.70;;
78589;SDS011;67888;50.228;7.828;2023-04-24T20:51:28;9.18;;;4.57;;
78589;SDS011;67888;50.228;7.828;2023-04-24T20:56:28;10.73;;;4.67;;
78589;SDS011;67888;50.228;7.828;2023-04-24T21:01:29;9.85;;;4.78;;
78589;SDS011;67888;50.228;7.828;2023-04-24T21:06:29;10.93;;;5.10;;
78589;SDS011;67888;50.228;7.828;2023-04-24T21:11:31;9.60;;;4.47;;
78589;SDS011;67888;50.228;7.828;2023-04-24T21:16:32;10.20;;;4.45;;
78589;SDS011;67888;50.228;7.828;2023-04-24T21:21:32;10.50;;;4.30;;
78589;SDS011;67888;50.228;7.828;2023-04-24T21:26:33;9.07;;;4.40;;
78589;SDS011;67888;50.228;7.828;2023-04-24T21:31:33;9.30;;;4.40;;
78589;SDS011;67888;50.228;7.828;2023-04-24T21:36:34;9.30;;;4.33;;
78589;SDS011;67888;50.228;7.828;2023-04-24T21:41:34;9.30;;;4.30;;
78589;SDS011;67888;50.228;7.828;2023-04-24T21:46:35;9.83;;;4.53;;
78589;SDS011;67888;50.228;7.828;2023-04-24T21:51:35;10.47;;;4.67;;
78589;SDS011;67888;50.228;7.828;2023-04-24T21:56:35;8.20;;;3.83;;
78589;SDS011;67888;50.228;7.828;2023-04-24T22:01:36;8.97;;;3.93;;
78589;SDS011;67888;50.228;7.828;2023-04-24T22:06:36;8.93;;;4.13;;
78589;SDS011;67888;50.228;7.828;2023-04-24T22:11:37;7.93;;;3.90;;
78589;SDS011;67888;50.228;7.828;2023-04-24T22:16:37;8.63;;;4.17;;
78589;SDS011;67888;50.228;7.828;2023-04-24T22:21:40;8.67;;;4.17;;
78589;SDS011;67888;50.228;7.828;2023-04-24T22:26:41;9.20;;;3.77;;
78589;SDS011;67888;50.228;7.828;2023-04-24T22:31:41;9.23;;;4.10;;
78589;SDS011;67888;50.228;7.828;2023-04-24T22:36:42;9.20;;;3.83;;
78589;SDS011;67888;50.228;7.828;2023-04-24T22:41:42;8.87;;;3.90;;
78589;SDS011;67888;50.228;7.828;2023-04-24T22:46:44;9.03;;;3.83;;
78589;SDS011;67888;50.228;7.828;2023-04-24T22:51:46;9.50;;;4.57;;
78589;SDS011;67888;50.228;7.828;2023-04-24T22:56:47;8.40;;;4.10;;
78589;SDS011;67888;50.228;7.828;2023-04-24T23:01:47;9.73;;;4.27;;
78589;SDS011;67888;50.228;7.828;2023-04-24T23:06:47;9.17;;;4.57;;
78589;SDS011;67888;50.228;7.828;2023-04-24T23:11:48;12.20;;;5.53;;
78589;SDS011;67888;50.228;7.828;2023-04-24T23:16:48;12.30;;;6.70;;
78589;SDS011;67888;50.228;7.828;2023-04-24T23:21:49;13.27;;;6.43;;
78589;SDS011;67888;50.228;7.828;2023-04-24T23:26:51;11.88;;;5.75;;
78589;SDS011;67888;50.228;7.828;2023-04-24T23:31:51;12.93;;;6.30;;
78589;SDS011;67888;50.228;7.828;2023-04-24T23:36:54;10.40;;;5.77;;
78589;SDS011;67888;50.228;7.828;2023-04-24T23:41:54;12.83;;;7.50;;
78589;SDS011;67888;50.228;7.828;2023-04-24T23:46:55;12.88;;;6.35;;
78589;SDS011;67888;50.228;7.828;2023-04-24T23:51:58;12.57;;;6.40;;
78589;SDS011;67888;50.228;7.828;2023-04-24T23:56:59;12.20;;;6.07;;
